Terminal Aerodrome Forecast
Issued by NWS Buffalo, NY

Home | Current Version | Previous Version | Text Only | Print | Product List | Glossary On
Versions: 1 2 3 4 5 6 7 8 9 10 11 12 13 14 15 16 17 18 19 20 21 22 23 24
000
FTUS41 KBUF 301720
TAFROC
TAF
KROC 301720Z 3018/3118 28013G21KT P6SM SCT045 SCT250
     FM302300 25013KT P6SM FEW250
     FM310200 25009KT P6SM FEW250
     FM311700 26011G17KT P6SM FEW250=

USA.gov is the U.S. government's official web portal to all federal, state and local government web resources and services.